sensor_id;sensor_type;location;lat;lon;timestamp;P1;durP1;ratioP1;P2;durP2;ratioP2
30370;SDS011;17164;48.590;11.410;2023-06-14T00:01:18;8.83;;;5.33;;
30370;SDS011;17164;48.590;11.410;2023-06-14T00:03:45;8.93;;;5.40;;
30370;SDS011;17164;48.590;11.410;2023-06-14T00:06:12;10.60;;;5.90;;
30370;SDS011;17164;48.590;11.410;2023-06-14T00:08:38;8.77;;;4.90;;
30370;SDS011;17164;48.590;11.410;2023-06-14T00:11:05;5.77;;;4.10;;
30370;SDS011;17164;48.590;11.410;2023-06-14T00:13:31;6.57;;;4.10;;
30370;SDS011;17164;48.590;11.410;2023-06-14T00:15:57;6.07;;;3.17;;
30370;SDS011;17164;48.590;11.410;2023-06-14T00:18:22;10.17;;;4.20;;
30370;SDS011;17164;48.590;11.410;2023-06-14T00:20:54;6.27;;;4.37;;
30370;SDS011;17164;48.590;11.410;2023-06-14T00:23:20;7.67;;;3.80;;
30370;SDS011;17164;48.590;11.410;2023-06-14T00:25:46;8.83;;;4.03;;
30370;SDS011;17164;48.590;11.410;2023-06-14T00:28:12;8.33;;;4.37;;
30370;SDS011;17164;48.590;11.410;2023-06-14T00:30:37;6.33;;;3.63;;
30370;SDS011;17164;48.590;11.410;2023-06-14T00:33:03;6.13;;;3.23;;
30370;SDS011;17164;48.590;11.410;2023-06-14T00:35:29;5.03;;;3.87;;
30370;SDS011;17164;48.590;11.410;2023-06-14T00:37:55;10.77;;;3.77;;
30370;SDS011;17164;48.590;11.410;2023-06-14T00:40:20;5.20;;;3.50;;
30370;SDS011;17164;48.590;11.410;2023-06-14T00:42:46;4.73;;;3.10;;
30370;SDS011;17164;48.590;11.410;2023-06-14T00:45:12;5.93;;;3.70;;
30370;SDS011;17164;48.590;11.410;2023-06-14T00:47:38;7.57;;;3.67;;
30370;SDS011;17164;48.590;11.410;2023-06-14T00:50:06;5.37;;;3.37;;
30370;SDS011;17164;48.590;11.410;2023-06-14T00:52:32;6.33;;;3.50;;
30370;SDS011;17164;48.590;11.410;2023-06-14T00:54:59;5.90;;;3.33;;
30370;SDS011;17164;48.590;11.410;2023-06-14T00:57:25;5.93;;;3.13;;
30370;SDS011;17164;48.590;11.410;2023-06-14T00:59:52;4.97;;;3.00;;
30370;SDS011;17164;48.590;11.410;2023-06-14T01:02:17;5.80;;;3.43;;
30370;SDS011;17164;48.590;11.410;2023-06-14T01:04:45;6.50;;;3.33;;
30370;SDS011;17164;48.590;11.410;2023-06-14T01:12:24;4.57;;;3.30;;
30370;SDS011;17164;48.590;11.410;2023-06-14T01:15:02;4.90;;;3.00;;
30370;SDS011;17164;48.590;11.410;2023-06-14T01:17:28;6.80;;;3.53;;
30370;SDS011;17164;48.590;11.410;2023-06-14T01:19:57;3.70;;;2.80;;
30370;SDS011;17164;48.590;11.410;2023-06-14T01:22:27;6.80;;;3.03;;
30370;SDS011;17164;48.590;11.410;2023-06-14T01:24:54;4.77;;;3.23;;
30370;SDS011;17164;48.590;11.410;2023-06-14T01:27:23;6.50;;;3.40;;
30370;SDS011;17164;48.590;11.410;2023-06-14T01:29:53;4.80;;;3.10;;
30370;SDS011;17164;48.590;11.410;2023-06-14T01:32:21;5.70;;;3.00;;
30370;SDS011;17164;48.590;11.410;2023-06-14T01:34:51;4.50;;;3.30;;
30370;SDS011;17164;48.590;11.410;2023-06-14T01:37:17;5.63;;;3.30;;
30370;SDS011;17164;48.590;11.410;2023-06-14T01:39:43;6.37;;;3.30;;
30370;SDS011;17164;48.590;11.410;2023-06-14T01:42:10;5.50;;;2.87;;
30370;SDS011;17164;48.590;11.410;2023-06-14T01:44:38;5.93;;;3.50;;
30370;SDS011;17164;48.590;11.410;2023-06-14T01:47:05;4.27;;;3.00;;
30370;SDS011;17164;48.590;11.410;2023-06-14T01:49:33;4.70;;;3.00;;
30370;SDS011;17164;48.590;11.410;2023-06-14T01:52:00;5.57;;;2.93;;
30370;SDS011;17164;48.590;11.410;2023-06-14T01:54:25;8.57;;;3.53;;
30370;SDS011;17164;48.590;11.410;2023-06-14T01:56:52;5.13;;;3.40;;
30370;SDS011;17164;48.590;11.410;2023-06-14T01:59:18;4.53;;;3.00;;
30370;SDS011;17164;48.590;11.410;2023-06-14T02:01:44;7.23;;;3.73;;
30370;SDS011;17164;48.590;11.410;2023-06-14T02:04:11;4.73;;;3.10;;
30370;SDS011;17164;48.590;11.410;2023-06-14T02:06:36;5.90;;;3.20;;
30370;SDS011;17164;48.590;11.410;2023-06-14T02:09:03;7.63;;;3.30;;
30370;SDS011;17164;48.590;11.410;2023-06-14T02:11:28;4.33;;;3.17;;
30370;SDS011;17164;48.590;11.410;2023-06-14T02:13:54;4.53;;;2.90;;
30370;SDS011;17164;48.590;11.410;2023-06-14T02:16:21;4.53;;;3.00;;
30370;SDS011;17164;48.590;11.410;2023-06-14T02:18:47;5.57;;;2.93;;
30370;SDS011;17164;48.590;11.410;2023-06-14T02:21:13;6.17;;;3.70;;
30370;SDS011;17164;48.590;11.410;2023-06-14T02:23:39;5.43;;;3.27;;
30370;SDS011;17164;48.590;11.410;2023-06-14T02:26:05;3.67;;;2.63;;
30370;SDS011;17164;48.590;11.410;2023-06-14T02:28:30;5.77;;;3.33;;
30370;SDS011;17164;48.590;11.410;2023-06-14T02:30:56;4.87;;;3.63;;
30370;SDS011;17164;48.590;11.410;2023-06-14T02:33:22;5.37;;;3.40;;
30370;SDS011;17164;48.590;11.410;2023-06-14T02:35:47;6.50;;;3.30;;
30370;SDS011;17164;48.590;11.410;2023-06-14T02:38:13;6.30;;;3.40;;
30370;SDS011;17164;48.590;11.410;2023-06-14T02:40:39;7.23;;;3.40;;
30370;SDS011;17164;48.590;11.410;2023-06-14T02:43:07;6.83;;;3.33;;
30370;SDS011;17164;48.590;11.410;2023-06-14T02:45:33;5.07;;;3.43;;
30370;SDS011;17164;48.590;11.410;2023-06-14T02:47:58;5.83;;;3.33;;
30370;SDS011;17164;48.590;11.410;2023-06-14T02:50:24;4.80;;;3.33;;
30370;SDS011;17164;48.590;11.410;2023-06-14T02:52:49;5.07;;;3.30;;
30370;SDS011;17164;48.590;11.410;2023-06-14T02:55:15;4.00;;;2.90;;
30370;SDS011;17164;48.590;11.410;2023-06-14T02:57:41;5.47;;;3.57;;
30370;SDS011;17164;48.590;11.410;2023-06-14T03:00:06;5.50;;;2.90;;
30370;SDS011;17164;48.590;11.410;2023-06-14T03:02:38;10.43;;;4.23;;
30370;SDS011;17164;48.590;11.410;2023-06-14T03:05:03;5.83;;;3.50;;
30370;SDS011;17164;48.590;11.410;2023-06-14T03:07:31;5.53;;;3.63;;
30370;SDS011;17164;48.590;11.410;2023-06-14T03:09:57;6.10;;;3.47;;
30370;SDS011;17164;48.590;11.410;2023-06-14T03:12:23;9.33;;;4.10;;
30370;SDS011;17164;48.590;11.410;2023-06-14T03:14:49;5.27;;;3.30;;
30370;SDS011;17164;48.590;11.410;2023-06-14T03:17:15;6.40;;;3.40;;
30370;SDS011;17164;48.590;11.410;2023-06-14T03:19:42;5.20;;;3.30;;
30370;SDS011;17164;48.590;11.410;2023-06-14T03:22:08;6.43;;;3.50;;
30370;SDS011;17164;48.590;11.410;2023-06-14T03:24:33;5.30;;;3.47;;
30370;SDS011;17164;48.590;11.410;2023-06-14T03:27:01;6.80;;;3.90;;
30370;SDS011;17164;48.590;11.410;2023-06-14T03:29:27;5.80;;;3.53;;
30370;SDS011;17164;48.590;11.410;2023-06-14T03:32:01;6.10;;;3.40;;
30370;SDS011;17164;48.590;11.410;2023-06-14T03:34:28;5.37;;;3.70;;
30370;SDS011;17164;48.590;11.410;2023-06-14T03:36:53;7.60;;;3.33;;
30370;SDS011;17164;48.590;11.410;2023-06-14T03:39:19;5.47;;;3.47;;
30370;SDS011;17164;48.590;11.410;2023-06-14T03:41:45;5.63;;;3.60;;
30370;SDS011;17164;48.590;11.410;2023-06-14T03:44:11;5.70;;;3.70;;
30370;SDS011;17164;48.590;11.410;2023-06-14T03:46:39;4.93;;;3.13;;
30370;SDS011;17164;48.590;11.410;2023-06-14T03:49:04;6.10;;;3.30;;
30370;SDS011;17164;48.590;11.410;2023-06-14T03:51:30;4.40;;;3.23;;
30370;SDS011;17164;48.590;11.410;2023-06-14T03:53:56;6.93;;;3.43;;
30370;SDS011;17164;48.590;11.410;2023-06-14T03:56:21;4.43;;;2.90;;
30370;SDS011;17164;48.590;11.410;2023-06-14T03:58:47;5.00;;;3.43;;
30370;SDS011;17164;48.590;11.410;2023-06-14T04:01:13;5.63;;;3.20;;
30370;SDS011;17164;48.590;11.410;2023-06-14T04:03:39;5.93;;;3.37;;
30370;SDS011;17164;48.590;11.410;2023-06-14T04:06:05;5.87;;;3.33;;
30370;SDS011;17164;48.590;11.410;2023-06-14T04:08:31;6.60;;;3.23;;
30370;SDS011;17164;48.590;11.410;2023-06-14T04:10:57;8.43;;;3.03;;
30370;SDS011;17164;48.590;11.410;2023-06-14T04:13:22;8.27;;;3.33;;
30370;SDS011;17164;48.590;11.410;2023-06-14T04:15:48;6.27;;;3.87;;
30370;SDS011;17164;48.590;11.410;2023-06-14T04:18:13;8.20;;;4.00;;
30370;SDS011;17164;48.590;11.410;2023-06-14T04:20:39;5.20;;;3.57;;
30370;SDS011;17164;48.590;11.410;2023-06-14T04:23:12;5.10;;;3.33;;
30370;SDS011;17164;48.590;11.410;2023-06-14T04:25:43;8.90;;;3.60;;
30370;SDS011;17164;48.590;11.410;2023-06-14T04:28:12;6.03;;;3.50;;
30370;SDS011;17164;48.590;11.410;2023-06-14T04:30:40;6.13;;;3.17;;
30370;SDS011;17164;48.590;11.410;2023-06-14T04:33:06;6.83;;;3.80;;
30370;SDS011;17164;48.590;11.410;2023-06-14T04:35:32;7.40;;;3.67;;
30370;SDS011;17164;48.590;11.410;2023-06-14T04:38:00;5.77;;;3.60;;
30370;SDS011;17164;48.590;11.410;2023-06-14T04:40:29;6.30;;;4.23;;
30370;SDS011;17164;48.590;11.410;2023-06-14T04:42:55;10.87;;;5.83;;
30370;SDS011;17164;48.590;11.410;2023-06-14T04:45:20;6.43;;;4.77;;
30370;SDS011;17164;48.590;11.410;2023-06-14T04:47:47;7.93;;;4.60;;
30370;SDS011;17164;48.590;11.410;2023-06-14T04:50:13;8.27;;;4.53;;
30370;SDS011;17164;48.590;11.410;2023-06-14T04:52:38;7.37;;;4.50;;
30370;SDS011;17164;48.590;11.410;2023-06-14T04:55:04;8.77;;;4.43;;
30370;SDS011;17164;48.590;11.410;2023-06-14T04:57:30;8.03;;;4.23;;
30370;SDS011;17164;48.590;11.410;2023-06-14T04:59:56;6.93;;;4.47;;
30370;SDS011;17164;48.590;11.410;2023-06-14T05:02:22;7.27;;;4.33;;
30370;SDS011;17164;48.590;11.410;2023-06-14T05:04:48;6.40;;;4.60;;
30370;SDS011;17164;48.590;11.410;2023-06-14T05:07:15;5.80;;;4.27;;
30370;SDS011;17164;48.590;11.410;2023-06-14T05:09:40;9.27;;;4.43;;
30370;SDS011;17164;48.590;11.410;2023-06-14T05:12:06;5.87;;;3.63;;
30370;SDS011;17164;48.590;11.410;2023-06-14T05:14:35;5.53;;;3.63;;
30370;SDS011;17164;48.590;11.410;2023-06-14T05:17:01;6.40;;;4.07;;
30370;SDS011;17164;48.590;11.410;2023-06-14T05:19:30;7.73;;;4.10;;
30370;SDS011;17164;48.590;11.410;2023-06-14T05:21:56;7.17;;;4.10;;
30370;SDS011;17164;48.590;11.410;2023-06-14T05:24:22;7.47;;;4.53;;
30370;SDS011;17164;48.590;11.410;2023-06-14T05:26:47;8.40;;;4.93;;
30370;SDS011;17164;48.590;11.410;2023-06-14T05:29:13;14.13;;;4.50;;
30370;SDS011;17164;48.590;11.410;2023-06-14T05:31:39;9.50;;;5.03;;
30370;SDS011;17164;48.590;11.410;2023-06-14T05:34:05;6.00;;;3.77;;
30370;SDS011;17164;48.590;11.410;2023-06-14T05:36:31;9.03;;;3.80;;
30370;SDS011;17164;48.590;11.410;2023-06-14T05:38:56;6.97;;;4.10;;
30370;SDS011;17164;48.590;11.410;2023-06-14T05:41:26;8.97;;;4.40;;
30370;SDS011;17164;48.590;11.410;2023-06-14T05:43:52;5.77;;;3.43;;
30370;SDS011;17164;48.590;11.410;2023-06-14T05:46:19;5.93;;;3.57;;
30370;SDS011;17164;48.590;11.410;2023-06-14T05:48:47;8.40;;;3.60;;
30370;SDS011;17164;48.590;11.410;2023-06-14T05:51:13;5.67;;;3.57;;
30370;SDS011;17164;48.590;11.410;2023-06-14T05:53:39;7.20;;;3.00;;
30370;SDS011;17164;48.590;11.410;2023-06-14T05:56:05;5.70;;;3.17;;
30370;SDS011;17164;48.590;11.410;2023-06-14T05:58:31;7.27;;;3.00;;
30370;SDS011;17164;48.590;11.410;2023-06-14T06:00:56;4.13;;;3.03;;
30370;SDS011;17164;48.590;11.410;2023-06-14T06:03:22;5.13;;;2.93;;
30370;SDS011;17164;48.590;11.410;2023-06-14T06:05:48;5.23;;;3.50;;
30370;SDS011;17164;48.590;11.410;2023-06-14T06:08:14;6.07;;;3.13;;
30370;SDS011;17164;48.590;11.410;2023-06-14T06:10:41;5.30;;;2.70;;
30370;SDS011;17164;48.590;11.410;2023-06-14T06:13:07;5.27;;;2.80;;
30370;SDS011;17164;48.590;11.410;2023-06-14T06:15:32;7.10;;;2.33;;
30370;SDS011;17164;48.590;11.410;2023-06-14T06:17:58;5.90;;;2.70;;
30370;SDS011;17164;48.590;11.410;2023-06-14T06:20:24;3.37;;;2.10;;
30370;SDS011;17164;48.590;11.410;2023-06-14T06:22:52;5.17;;;2.33;;
30370;SDS011;17164;48.590;11.410;2023-06-14T06:25:18;5.13;;;2.33;;
30370;SDS011;17164;48.590;11.410;2023-06-14T06:27:44;5.83;;;2.57;;
30370;SDS011;17164;48.590;11.410;2023-06-14T06:30:10;7.07;;;2.40;;
30370;SDS011;17164;48.590;11.410;2023-06-14T06:32:36;10.23;;;2.70;;
30370;SDS011;17164;48.590;11.410;2023-06-14T06:35:02;3.60;;;2.20;;
30370;SDS011;17164;48.590;11.410;2023-06-14T06:37:28;4.37;;;2.20;;
30370;SDS011;17164;48.590;11.410;2023-06-14T06:39:53;4.90;;;2.20;;
30370;SDS011;17164;48.590;11.410;2023-06-14T06:42:19;4.50;;;2.03;;
30370;SDS011;17164;48.590;11.410;2023-06-14T06:44:45;4.13;;;2.60;;
30370;SDS011;17164;48.590;11.410;2023-06-14T06:47:10;4.17;;;2.23;;
30370;SDS011;17164;48.590;11.410;2023-06-14T06:49:36;4.07;;;2.23;;
30370;SDS011;17164;48.590;11.410;2023-06-14T06:52:04;4.63;;;2.33;;
30370;SDS011;17164;48.590;11.410;2023-06-14T06:54:31;6.73;;;2.60;;
30370;SDS011;17164;48.590;11.410;2023-06-14T06:56:57;3.97;;;2.17;;
30370;SDS011;17164;48.590;11.410;2023-06-14T06:59:23;5.47;;;2.17;;
30370;SDS011;17164;48.590;11.410;2023-06-14T07:01:49;6.63;;;2.07;;
30370;SDS011;17164;48.590;11.410;2023-06-14T07:04:15;4.60;;;2.03;;
30370;SDS011;17164;48.590;11.410;2023-06-14T07:06:41;6.07;;;2.40;;
30370;SDS011;17164;48.590;11.410;2023-06-14T07:09:07;6.57;;;2.27;;
30370;SDS011;17164;48.590;11.410;2023-06-14T07:11:37;14.90;;;2.30;;
30370;SDS011;17164;48.590;11.410;2023-06-14T07:14:05;4.73;;;2.40;;
30370;SDS011;17164;48.590;11.410;2023-06-14T07:16:31;5.77;;;2.50;;
30370;SDS011;17164;48.590;11.410;2023-06-14T07:18:57;4.73;;;2.13;;
30370;SDS011;17164;48.590;11.410;2023-06-14T07:21:23;6.10;;;2.37;;
30370;SDS011;17164;48.590;11.410;2023-06-14T07:23:50;5.90;;;2.00;;
30370;SDS011;17164;48.590;11.410;2023-06-14T07:26:16;2.73;;;1.73;;
30370;SDS011;17164;48.590;11.410;2023-06-14T07:28:42;3.63;;;2.10;;
30370;SDS011;17164;48.590;11.410;2023-06-14T07:31:10;5.17;;;2.07;;
30370;SDS011;17164;48.590;11.410;2023-06-14T07:33:36;3.13;;;1.97;;
30370;SDS011;17164;48.590;11.410;2023-06-14T07:36:02;3.57;;;2.07;;
30370;SDS011;17164;48.590;11.410;2023-06-14T07:38:27;6.33;;;2.27;;
30370;SDS011;17164;48.590;11.410;2023-06-14T07:40:53;5.57;;;2.40;;
30370;SDS011;17164;48.590;11.410;2023-06-14T07:43:19;7.40;;;2.13;;
30370;SDS011;17164;48.590;11.410;2023-06-14T07:45:44;4.97;;;2.30;;
30370;SDS011;17164;48.590;11.410;2023-06-14T07:48:10;4.90;;;2.17;;
30370;SDS011;17164;48.590;11.410;2023-06-14T07:50:36;5.70;;;2.27;;
30370;SDS011;17164;48.590;11.410;2023-06-14T07:53:02;5.13;;;2.27;;
30370;SDS011;17164;48.590;11.410;2023-06-14T07:55:27;4.53;;;2.03;;
30370;SDS011;17164;48.590;11.410;2023-06-14T07:57:53;4.53;;;2.10;;
30370;SDS011;17164;48.590;11.410;2023-06-14T08:00:19;7.77;;;2.30;;
30370;SDS011;17164;48.590;11.410;2023-06-14T08:02:45;6.13;;;2.50;;
30370;SDS011;17164;48.590;11.410;2023-06-14T08:05:11;3.90;;;2.07;;
30370;SDS011;17164;48.590;11.410;2023-06-14T08:07:38;5.00;;;2.30;;
30370;SDS011;17164;48.590;11.410;2023-06-14T08:10:04;4.17;;;2.07;;
30370;SDS011;17164;48.590;11.410;2023-06-14T08:12:31;7.53;;;2.20;;
30370;SDS011;17164;48.590;11.410;2023-06-14T08:14:57;4.33;;;2.30;;
30370;SDS011;17164;48.590;11.410;2023-06-14T08:17:23;4.37;;;2.10;;
30370;SDS011;17164;48.590;11.410;2023-06-14T08:19:48;5.13;;;2.13;;
30370;SDS011;17164;48.590;11.410;2023-06-14T08:22:14;5.07;;;1.80;;
30370;SDS011;17164;48.590;11.410;2023-06-14T08:24:40;4.33;;;2.00;;
30370;SDS011;17164;48.590;11.410;2023-06-14T08:27:06;4.83;;;2.30;;
30370;SDS011;17164;48.590;11.410;2023-06-14T08:29:32;5.70;;;2.10;;
30370;SDS011;17164;48.590;11.410;2023-06-14T08:31:58;5.50;;;2.40;;
30370;SDS011;17164;48.590;11.410;2023-06-14T08:34:23;5.80;;;2.30;;
30370;SDS011;17164;48.590;11.410;2023-06-14T08:36:52;4.07;;;1.93;;
30370;SDS011;17164;48.590;11.410;2023-06-14T08:39:17;2.80;;;1.90;;
30370;SDS011;17164;48.590;11.410;2023-06-14T08:41:46;4.20;;;2.20;;
30370;SDS011;17164;48.590;11.410;2023-06-14T08:44:15;5.57;;;2.37;;
30370;SDS011;17164;48.590;11.410;2023-06-14T08:46:41;4.80;;;2.13;;
30370;SDS011;17164;48.590;11.410;2023-06-14T08:49:08;4.50;;;2.23;;
30370;SDS011;17164;48.590;11.410;2023-06-14T08:51:36;9.50;;;2.57;;
30370;SDS011;17164;48.590;11.410;2023-06-14T08:54:02;5.33;;;2.50;;
30370;SDS011;17164;48.590;11.410;2023-06-14T08:56:29;7.20;;;2.57;;
30370;SDS011;17164;48.590;11.410;2023-06-14T08:58:56;4.87;;;2.30;;
30370;SDS011;17164;48.590;11.410;2023-06-14T09:01:26;4.10;;;2.30;;
30370;SDS011;17164;48.590;11.410;2023-06-14T09:03:51;3.53;;;1.90;;
30370;SDS011;17164;48.590;11.410;2023-06-14T09:06:19;8.10;;;1.90;;
30370;SDS011;17164;48.590;11.410;2023-06-14T09:08:48;3.70;;;2.23;;
30370;SDS011;17164;48.590;11.410;2023-06-14T09:11:14;4.97;;;2.03;;
30370;SDS011;17164;48.590;11.410;2023-06-14T09:13:43;2.83;;;1.90;;
30370;SDS011;17164;48.590;11.410;2023-06-14T09:16:09;4.07;;;2.07;;
30370;SDS011;17164;48.590;11.410;2023-06-14T09:18:36;3.77;;;1.97;;
30370;SDS011;17164;48.590;11.410;2023-06-14T09:21:06;3.93;;;1.80;;
30370;SDS011;17164;48.590;11.410;2023-06-14T09:23:36;7.27;;;2.00;;
30370;SDS011;17164;48.590;11.410;2023-06-14T09:26:07;3.53;;;1.90;;
30370;SDS011;17164;48.590;11.410;2023-06-14T09:28:33;2.60;;;1.67;;
30370;SDS011;17164;48.590;11.410;2023-06-14T09:30:59;6.13;;;2.10;;
30370;SDS011;17164;48.590;11.410;2023-06-14T09:33:25;3.33;;;1.90;;
30370;SDS011;17164;48.590;11.410;2023-06-14T09:35:52;4.10;;;2.00;;
30370;SDS011;17164;48.590;11.410;2023-06-14T09:38:19;3.80;;;2.20;;
30370;SDS011;17164;48.590;11.410;2023-06-14T09:40:45;7.77;;;2.10;;
30370;SDS011;17164;48.590;11.410;2023-06-14T09:43:11;3.57;;;2.40;;
30370;SDS011;17164;48.590;11.410;2023-06-14T09:45:38;3.93;;;2.40;;
30370;SDS011;17164;48.590;11.410;2023-06-14T09:48:10;4.27;;;2.40;;
30370;SDS011;17164;48.590;11.410;2023-06-14T09:50:37;4.30;;;2.03;;
30370;SDS011;17164;48.590;11.410;2023-06-14T09:53:07;3.87;;;2.17;;
30370;SDS011;17164;48.590;11.410;2023-06-14T09:55:36;5.83;;;2.43;;
30370;SDS011;17164;48.590;11.410;2023-06-14T09:58:06;5.13;;;1.90;;
30370;SDS011;17164;48.590;11.410;2023-06-14T10:00:32;6.23;;;2.20;;
30370;SDS011;17164;48.590;11.410;2023-06-14T10:03:10;7.97;;;2.17;;
30370;SDS011;17164;48.590;11.410;2023-06-14T10:05:36;5.07;;;2.37;;
30370;SDS011;17164;48.590;11.410;2023-06-14T10:08:08;4.97;;;2.33;;
30370;SDS011;17164;48.590;11.410;2023-06-14T10:10:38;4.90;;;1.97;;
30370;SDS011;17164;48.590;11.410;2023-06-14T10:13:04;7.90;;;1.90;;
30370;SDS011;17164;48.590;11.410;2023-06-14T10:18:33;3.23;;;2.00;;
30370;SDS011;17164;48.590;11.410;2023-06-14T10:21:28;3.40;;;2.00;;
30370;SDS011;17164;48.590;11.410;2023-06-14T10:24:08;5.60;;;2.60;;
30370;SDS011;17164;48.590;11.410;2023-06-14T10:26:49;3.10;;;1.77;;
30370;SDS011;17164;48.590;11.410;2023-06-14T10:29:22;4.43;;;1.83;;
30370;SDS011;17164;48.590;11.410;2023-06-14T10:31:49;7.33;;;2.60;;
30370;SDS011;17164;48.590;11.410;2023-06-14T10:34:25;3.30;;;1.93;;
30370;SDS011;17164;48.590;11.410;2023-06-14T10:39:30;4.70;;;2.53;;
30370;SDS011;17164;48.590;11.410;2023-06-14T10:41:57;4.37;;;2.10;;
30370;SDS011;17164;48.590;11.410;2023-06-14T10:46:58;6.37;;;2.07;;
30370;SDS011;17164;48.590;11.410;2023-06-14T10:49:41;4.77;;;2.27;;
30370;SDS011;17164;48.590;11.410;2023-06-14T10:52:08;3.80;;;2.20;;
30370;SDS011;17164;48.590;11.410;2023-06-14T11:00:07;3.23;;;2.00;;
30370;SDS011;17164;48.590;11.410;2023-06-14T11:05:26;5.90;;;2.20;;
30370;SDS011;17164;48.590;11.410;2023-06-14T11:10:37;3.37;;;2.03;;
30370;SDS011;17164;48.590;11.410;2023-06-14T11:13:04;7.27;;;2.00;;
30370;SDS011;17164;48.590;11.410;2023-06-14T11:15:30;4.30;;;1.80;;
30370;SDS011;17164;48.590;11.410;2023-06-14T11:18:00;2.67;;;1.93;;
30370;SDS011;17164;48.590;11.410;2023-06-14T11:20:29;3.53;;;2.00;;
30370;SDS011;17164;48.590;11.410;2023-06-14T11:22:56;4.80;;;2.57;;
30370;SDS011;17164;48.590;11.410;2023-06-14T11:25:22;4.63;;;2.20;;
30370;SDS011;17164;48.590;11.410;2023-06-14T11:27:51;3.77;;;2.20;;
30370;SDS011;17164;48.590;11.410;2023-06-14T11:30:17;5.07;;;2.07;;
30370;SDS011;17164;48.590;11.410;2023-06-14T11:32:45;4.03;;;2.40;;
30370;SDS011;17164;48.590;11.410;2023-06-14T11:35:16;5.40;;;2.30;;
30370;SDS011;17164;48.590;11.410;2023-06-14T11:37:42;4.73;;;2.47;;
30370;SDS011;17164;48.590;11.410;2023-06-14T11:40:14;6.27;;;2.30;;
30370;SDS011;17164;48.590;11.410;2023-06-14T11:42:40;4.17;;;2.00;;
30370;SDS011;17164;48.590;11.410;2023-06-14T11:45:07;5.00;;;2.23;;
30370;SDS011;17164;48.590;11.410;2023-06-14T11:47:34;2.67;;;2.13;;
30370;SDS011;17164;48.590;11.410;2023-06-14T11:50:00;4.57;;;2.10;;
30370;SDS011;17164;48.590;11.410;2023-06-14T11:52:26;6.67;;;2.37;;
30370;SDS011;17164;48.590;11.410;2023-06-14T11:54:52;4.43;;;2.00;;
30370;SDS011;17164;48.590;11.410;2023-06-14T11:57:19;5.50;;;2.10;;
30370;SDS011;17164;48.590;11.410;2023-06-14T11:59:45;5.20;;;2.50;;
30370;SDS011;17164;48.590;11.410;2023-06-14T12:02:18;6.60;;;2.30;;
30370;SDS011;17164;48.590;11.410;2023-06-14T12:04:46;6.37;;;2.23;;
30370;SDS011;17164;48.590;11.410;2023-06-14T12:07:14;5.53;;;2.03;;
30370;SDS011;17164;48.590;11.410;2023-06-14T12:09:42;4.20;;;2.17;;
30370;SDS011;17164;48.590;11.410;2023-06-14T12:12:31;4.17;;;2.10;;
30370;SDS011;17164;48.590;11.410;2023-06-14T12:15:04;3.57;;;2.20;;
30370;SDS011;17164;48.590;11.410;2023-06-14T12:17:32;3.83;;;2.37;;
30370;SDS011;17164;48.590;11.410;2023-06-14T12:20:11;4.47;;;2.33;;
30370;SDS011;17164;48.590;11.410;2023-06-14T12:22:50;4.33;;;2.20;;
30370;SDS011;17164;48.590;11.410;2023-06-14T12:25:26;3.23;;;1.93;;
30370;SDS011;17164;48.590;11.410;2023-06-14T12:27:53;4.33;;;2.20;;
30370;SDS011;17164;48.590;11.410;2023-06-14T12:30:20;3.87;;;1.93;;
30370;SDS011;17164;48.590;11.410;2023-06-14T12:32:45;5.40;;;2.10;;
30370;SDS011;17164;48.590;11.410;2023-06-14T12:35:11;5.40;;;2.30;;
30370;SDS011;17164;48.590;11.410;2023-06-14T12:37:36;3.83;;;2.17;;
30370;SDS011;17164;48.590;11.410;2023-06-14T12:40:03;3.57;;;2.07;;
30370;SDS011;17164;48.590;11.410;2023-06-14T12:42:31;4.00;;;2.40;;
30370;SDS011;17164;48.590;11.410;2023-06-14T12:44:56;4.33;;;1.93;;
30370;SDS011;17164;48.590;11.410;2023-06-14T12:47:22;6.07;;;2.47;;
30370;SDS011;17164;48.590;11.410;2023-06-14T12:49:47;5.13;;;2.57;;
30370;SDS011;17164;48.590;11.410;2023-06-14T12:52:13;7.37;;;2.40;;
30370;SDS011;17164;48.590;11.410;2023-06-14T12:54:39;6.17;;;2.33;;
30370;SDS011;17164;48.590;11.410;2023-06-14T12:57:05;4.73;;;2.07;;
30370;SDS011;17164;48.590;11.410;2023-06-14T12:59:31;5.83;;;2.40;;
30370;SDS011;17164;48.590;11.410;2023-06-14T13:01:58;6.10;;;2.03;;
30370;SDS011;17164;48.590;11.410;2023-06-14T13:04:40;4.53;;;2.13;;
30370;SDS011;17164;48.590;11.410;2023-06-14T13:07:05;5.53;;;1.93;;
30370;SDS011;17164;48.590;11.410;2023-06-14T13:09:31;5.20;;;2.60;;
30370;SDS011;17164;48.590;11.410;2023-06-14T13:11:57;6.07;;;2.20;;
30370;SDS011;17164;48.590;11.410;2023-06-14T13:14:22;4.63;;;2.17;;
30370;SDS011;17164;48.590;11.410;2023-06-14T13:16:48;5.90;;;2.40;;
30370;SDS011;17164;48.590;11.410;2023-06-14T13:19:13;3.33;;;1.83;;
30370;SDS011;17164;48.590;11.410;2023-06-14T13:21:39;6.50;;;2.60;;
30370;SDS011;17164;48.590;11.410;2023-06-14T13:24:05;4.67;;;2.20;;
30370;SDS011;17164;48.590;11.410;2023-06-14T13:26:31;4.87;;;2.30;;
30370;SDS011;17164;48.590;11.410;2023-06-14T13:28:58;9.67;;;3.10;;
30370;SDS011;17164;48.590;11.410;2023-06-14T13:31:23;9.63;;;2.57;;
30370;SDS011;17164;48.590;11.410;2023-06-14T13:33:49;4.13;;;2.47;;
30370;SDS011;17164;48.590;11.410;2023-06-14T13:36:15;3.37;;;1.90;;
30370;SDS011;17164;48.590;11.410;2023-06-14T13:38:41;6.17;;;2.33;;
30370;SDS011;17164;48.590;11.410;2023-06-14T13:41:06;3.67;;;2.03;;
30370;SDS011;17164;48.590;11.410;2023-06-14T13:43:32;4.20;;;2.23;;
30370;SDS011;17164;48.590;11.410;2023-06-14T13:45:57;3.30;;;2.07;;
30370;SDS011;17164;48.590;11.410;2023-06-14T13:48:23;3.30;;;2.30;;
30370;SDS011;17164;48.590;11.410;2023-06-14T13:50:49;3.73;;;2.00;;
30370;SDS011;17164;48.590;11.410;2023-06-14T13:53:15;3.40;;;1.77;;
30370;SDS011;17164;48.590;11.410;2023-06-14T13:55:40;4.57;;;2.33;;
30370;SDS011;17164;48.590;11.410;2023-06-14T13:58:06;3.63;;;2.03;;
30370;SDS011;17164;48.590;11.410;2023-06-14T14:00:32;3.77;;;2.43;;
30370;SDS011;17164;48.590;11.410;2023-06-14T14:02:57;3.93;;;2.30;;
30370;SDS011;17164;48.590;11.410;2023-06-14T14:05:24;4.63;;;2.23;;
30370;SDS011;17164;48.590;11.410;2023-06-14T14:07:54;6.53;;;2.00;;
30370;SDS011;17164;48.590;11.410;2023-06-14T14:10:20;3.27;;;2.00;;
30370;SDS011;17164;48.590;11.410;2023-06-14T14:12:46;6.53;;;2.40;;
30370;SDS011;17164;48.590;11.410;2023-06-14T14:15:12;3.17;;;1.80;;
30370;SDS011;17164;48.590;11.410;2023-06-14T14:17:39;2.90;;;2.17;;
30370;SDS011;17164;48.590;11.410;2023-06-14T14:20:05;3.43;;;2.40;;
30370;SDS011;17164;48.590;11.410;2023-06-14T14:22:32;3.40;;;2.17;;
30370;SDS011;17164;48.590;11.410;2023-06-14T14:24:57;3.63;;;2.37;;
30370;SDS011;17164;48.590;11.410;2023-06-14T14:27:23;5.63;;;2.30;;
30370;SDS011;17164;48.590;11.410;2023-06-14T14:29:48;4.43;;;2.10;;
30370;SDS011;17164;48.590;11.410;2023-06-14T14:32:14;3.63;;;2.17;;
30370;SDS011;17164;48.590;11.410;2023-06-14T14:34:40;3.40;;;2.50;;
30370;SDS011;17164;48.590;11.410;2023-06-14T14:37:06;3.93;;;2.20;;
30370;SDS011;17164;48.590;11.410;2023-06-14T14:39:31;8.57;;;2.47;;
30370;SDS011;17164;48.590;11.410;2023-06-14T14:41:57;4.93;;;2.70;;
30370;SDS011;17164;48.590;11.410;2023-06-14T14:44:23;5.43;;;2.17;;
30370;SDS011;17164;48.590;11.410;2023-06-14T14:46:48;3.43;;;2.23;;
30370;SDS011;17164;48.590;11.410;2023-06-14T14:49:14;5.77;;;2.20;;
30370;SDS011;17164;48.590;11.410;2023-06-14T14:51:40;5.00;;;2.47;;
30370;SDS011;17164;48.590;11.410;2023-06-14T14:54:05;3.57;;;2.10;;
30370;SDS011;17164;48.590;11.410;2023-06-14T14:56:31;4.30;;;2.33;;